Time;durP1;ratioP1;P1;durP2;ratioP2;P2;SDS_P1;SDS_P2;PMS_P1;PMS_P2;Temp;Humidity;BMP_temperature;BMP_pressure;BME280_temperature;BME280_humidity;BME280_pressure;Samples;Min_cycle;Max_cycle;Signal;HPM_P1;HPM_P2
2024/01/27 00:01:53;;;;;;;11.50;5.63;;;1.70;99.90;;;;;;4985453;28;20947;-65
2024/01/27 00:04:20;;;;;;;11.63;7.03;;;1.90;99.90;;;;;;4967534;28;20872;-65
2024/01/27 00:06:47;;;;;;;16.07;6.23;;;2.10;99.90;;;;;;4982443;28;20859;-66
2024/01/27 00:09:14;;;;;;;5.20;4.10;;;2.20;99.90;;;;;;4971798;28;20487;-66
2024/01/27 00:11:42;;;;;;;6.23;4.60;;;2.30;99.90;;;;;;4957364;28;20477;-66
2024/01/27 00:14:09;;;;;;;18.13;4.77;;;2.40;99.90;;;;;;4972377;28;20497;-65
2024/01/27 00:16:36;;;;;;;11.10;4.83;;;2.50;99.90;;;;;;4987065;28;20474;-65
2024/01/27 00:19:03;;;;;;;12.00;5.10;;;2.50;99.90;;;;;;4987067;28;20485;-67
2024/01/27 00:21:30;;;;;;;19.23;6.47;;;2.60;99.90;;;;;;4981578;28;20598;-66
2024/01/27 00:24:00;;;;;;;7.40;5.07;;;2.60;99.90;;;;;;4988934;28;20468;-65
2024/01/27 00:26:27;;;;;;;21.93;6.03;;;2.60;99.90;;;;;;4970004;28;20490;-65
2024/01/27 00:28:56;;;;;;;20.10;5.70;;;2.50;99.90;;;;;;4966416;28;20481;-66
2024/01/27 00:31:23;;;;;;;8.30;4.00;;;2.50;99.90;;;;;;4969253;28;20471;-65
2024/01/27 00:33:50;;;;;;;55.90;7.30;;;2.40;99.90;;;;;;4972473;28;20478;-65
2024/01/27 00:36:17;;;;;;;9.17;5.00;;;2.40;99.90;;;;;;4975786;28;20925;-65
2024/01/27 00:38:44;;;;;;;7.00;4.13;;;2.40;99.90;;;;;;4993765;28;20486;-65
2024/01/27 00:41:17;;;;;;;31.27;5.93;;;2.40;99.90;;;;;;4966898;28;20490;-66
2024/01/27 00:43:44;;;;;;;18.43;5.67;;;2.40;99.90;;;;;;4953208;28;21340;-65
2024/01/27 00:46:13;;;;;;;9.03;4.57;;;2.40;99.90;;;;;;4975740;28;20488;-66
2024/01/27 00:48:39;;;;;;;9.30;4.90;;;2.40;99.90;;;;;;4977134;28;20488;-68
2024/01/27 00:51:06;;;;;;;9.83;5.70;;;2.40;99.90;;;;;;4980023;28;20486;-69
2024/01/27 00:53:33;;;;;;;14.93;7.00;;;2.40;99.90;;;;;;4981416;28;20477;-71
2024/01/27 00:56:01;;;;;;;15.30;5.27;;;2.40;99.90;;;;;;4975465;28;20478;-67
2024/01/27 00:58:28;;;;;;;7.63;4.53;;;2.30;99.90;;;;;;4972974;28;20569;-70
2024/01/27 01:00:55;;;;;;;8.90;4.60;;;2.10;99.90;;;;;;4981269;28;20868;-69
2024/01/27 01:03:23;;;;;;;35.63;7.00;;;1.60;99.90;;;;;;4977430;28;20489;-69
2024/01/27 01:05:50;;;;;;;9.23;4.63;;;1.60;99.90;;;;;;4955220;28;20525;-70
2024/01/27 01:08:17;;;;;;;26.23;4.70;;;1.40;99.90;;;;;;4973422;28;20582;-68
2024/01/27 01:10:44;;;;;;;6.73;3.70;;;1.40;99.90;;;;;;4968208;28;20561;-70
2024/01/27 01:13:11;;;;;;;7.60;4.43;;;1.40;99.90;;;;;;4975520;28;20825;-70
2024/01/27 01:15:39;;;;;;;4.90;3.37;;;1.40;99.90;;;;;;4968810;28;20574;-69
2024/01/27 01:18:07;;;;;;;8.87;4.27;;;1.30;99.90;;;;;;4949436;28;21188;-70
2024/01/27 01:20:35;;;;;;;17.60;4.33;;;1.30;99.90;;;;;;4981724;28;20477;-70
2024/01/27 01:23:02;;;;;;;10.50;3.90;;;1.30;99.90;;;;;;4968138;28;20562;-70
2024/01/27 01:25:29;;;;;;;4.43;3.37;;;1.40;99.90;;;;;;4978051;28;20646;-69
2024/01/27 01:27:56;;;;;;;9.80;4.30;;;1.40;99.90;;;;;;4971347;28;21149;-67
2024/01/27 01:30:23;;;;;;;15.27;4.43;;;1.60;99.90;;;;;;4976429;28;20500;-65
2024/01/27 01:32:51;;;;;;;7.30;3.57;;;1.70;99.90;;;;;;4977818;28;20477;-66
2024/01/27 01:35:18;;;;;;;10.80;3.20;;;1.80;99.90;;;;;;4963323;28;20910;-65
2024/01/27 01:37:48;;;;;;;7.93;4.07;;;1.80;99.90;;;;;;4982167;28;20485;-65
2024/01/27 01:40:15;;;;;;;9.47;3.93;;;1.80;99.90;;;;;;4983960;28;20510;-64
2024/01/27 01:42:42;;;;;;;22.67;3.90;;;1.70;99.90;;;;;;4964426;28;20493;-65
2024/01/27 01:45:11;;;;;;;10.57;4.07;;;1.70;99.90;;;;;;4992802;28;20483;-65
2024/01/27 01:47:38;;;;;;;9.33;6.20;;;1.70;99.90;;;;;;4979324;28;20837;-65
2024/01/27 01:50:07;;;;;;;11.63;3.70;;;1.80;99.90;;;;;;4958789;28;22021;-65
2024/01/27 01:52:34;;;;;;;13.43;4.40;;;1.80;99.90;;;;;;4978323;28;20478;-65
2024/01/27 01:55:03;;;;;;;5.73;3.40;;;1.80;99.90;;;;;;4946357;28;20474;-66
2024/01/27 01:57:30;;;;;;;4.60;3.03;;;1.90;99.90;;;;;;4974179;28;21248;-65
2024/01/27 01:59:57;;;;;;;7.30;3.60;;;1.90;99.90;;;;;;4984239;28;20549;-68
2024/01/27 02:02:24;;;;;;;7.40;3.77;;;1.90;99.90;;;;;;4955021;28;20896;-68
2024/01/27 02:04:51;;;;;;;8.23;3.60;;;2.00;99.90;;;;;;4977876;28;20899;-68
2024/01/27 02:07:18;;;;;;;8.47;4.17;;;2.00;99.90;;;;;;4980552;28;20489;-69
2024/01/27 02:09:45;;;;;;;4.73;3.40;;;2.00;99.90;;;;;;4975193;28;21047;-64
2024/01/27 02:12:13;;;;;;;16.10;4.33;;;1.90;99.90;;;;;;4972499;28;21043;-65
2024/01/27 02:14:40;;;;;;;10.83;3.50;;;1.90;99.90;;;;;;4979293;28;20535;-66
2024/01/27 02:17:07;;;;;;;21.07;4.13;;;1.90;99.90;;;;;;4973183;28;20566;-65
2024/01/27 02:19:34;;;;;;;4.87;3.73;;;1.90;99.90;;;;;;4995682;28;20799;-64
2024/01/27 02:22:00;;;;;;;4.93;3.90;;;1.90;99.90;;;;;;4960999;28;20769;-65
2024/01/27 02:24:29;;;;;;;7.37;3.90;;;1.90;99.90;;;;;;4988174;28;20479;-64
2024/01/27 02:26:56;;;;;;;9.77;4.67;;;;;;;;;;4976426;28;20470;-64
2024/01/27 02:29:23;;;;;;;12.20;4.53;;;1.80;99.90;;;;;;4977219;28;20489;-65
2024/01/27 02:31:50;;;;;;;14.90;4.83;;;1.80;99.90;;;;;;4977846;28;20737;-65
2024/01/27 02:34:17;;;;;;;8.70;5.17;;;1.80;99.90;;;;;;4988595;28;21787;-65
2024/01/27 02:36:44;;;;;;;10.57;6.57;;;1.80;99.90;;;;;;4985379;28;20479;-64
2024/01/27 02:39:11;;;;;;;16.23;5.33;;;1.80;99.90;;;;;;4983819;28;20481;-65
2024/01/27 02:41:40;;;;;;;9.57;5.40;;;1.80;99.90;;;;;;4981054;28;20540;-64
2024/01/27 02:44:07;;;;;;;11.30;6.20;;;1.80;99.90;;;;;;4981948;28;20481;-65
2024/01/27 02:46:34;;;;;;;17.33;5.90;;;1.60;99.90;;;;;;4982276;28;21530;-63
2024/01/27 02:49:01;;;;;;;12.90;6.10;;;1.30;99.90;;;;;;4980512;28;20483;-64
2024/01/27 02:51:28;;;;;;;33.63;5.30;;;;;;;;;;4974024;28;20470;-65
2024/01/27 02:53:55;;;;;;;7.57;3.87;;;1.20;99.90;;;;;;4973594;28;20579;-65
2024/01/27 02:56:21;;;;;;;16.70;4.30;;;1.20;99.90;;;;;;4979401;28;20489;-65
2024/01/27 02:58:50;;;;;;;22.63;5.07;;;1.30;99.90;;;;;;4975245;28;20536;-64
2024/01/27 03:01:16;;;;;;;6.50;4.00;;;1.30;99.90;;;;;;4967885;28;20892;-64
2024/01/27 03:03:44;;;;;;;5.30;3.63;;;1.30;99.90;;;;;;4990235;28;21034;-64
2024/01/27 03:06:11;;;;;;;16.23;5.07;;;1.40;99.90;;;;;;4997271;28;20473;-65
2024/01/27 03:08:37;;;;;;;12.83;5.30;;;1.40;99.90;;;;;;4989567;28;20476;-65
2024/01/27 03:11:05;;;;;;;7.20;5.00;;;1.20;99.90;;;;;;4989818;28;20473;-64
2024/01/27 03:13:31;;;;;;;16.87;4.23;;;1.10;99.90;;;;;;4987897;28;20484;-63
2024/01/27 03:16:00;;;;;;;6.77;4.20;;;1.10;99.90;;;;;;4983687;28;20486;-63
2024/01/27 03:18:27;;;;;;;15.03;5.37;;;1.10;99.90;;;;;;4994175;28;20493;-64
2024/01/27 03:20:53;;;;;;;6.70;3.90;;;1.00;99.90;;;;;;4990843;28;20481;-64
2024/01/27 03:23:20;;;;;;;8.03;3.87;;;0.90;99.90;;;;;;4992040;28;20832;-64
2024/01/27 03:25:47;;;;;;;51.00;5.60;;;0.70;99.90;;;;;;4986447;28;20863;-64
2024/01/27 03:28:14;;;;;;;3.80;2.90;;;0.70;99.90;;;;;;4991794;28;20477;-64
2024/01/27 03:30:41;;;;;;;11.73;4.20;;;0.90;99.90;;;;;;4991460;28;20474;-63
2024/01/27 03:33:12;;;;;;;13.47;4.30;;;;;;;;;;4963744;28;20824;-64
2024/01/27 03:35:39;;;;;;;4.77;2.83;;;1.10;99.90;;;;;;4993046;28;20490;-63
2024/01/27 03:38:07;;;;;;;6.97;4.20;;;1.20;99.90;;;;;;4981238;28;20574;-64
2024/01/27 03:40:34;;;;;;;15.23;3.93;;;1.30;99.90;;;;;;4991023;28;20871;-64
2024/01/27 03:43:00;;;;;;;6.67;4.13;;;1.30;99.90;;;;;;4973445;28;20909;-64
2024/01/27 03:45:27;;;;;;;6.63;3.60;;;1.30;99.90;;;;;;4987032;28;20548;-63
2024/01/27 03:47:54;;;;;;;29.30;4.20;;;1.30;99.90;;;;;;4987816;28;20532;-64
2024/01/27 03:50:22;;;;;;;6.03;4.10;;;1.30;99.90;;;;;;4975591;28;20488;-64
2024/01/27 03:52:49;;;;;;;8.20;3.90;;;1.30;99.90;;;;;;4980639;28;20476;-63
2024/01/27 03:55:16;;;;;;;5.27;3.30;;;1.30;99.90;;;;;;4983078;28;20489;-63
2024/01/27 03:57:43;;;;;;;6.23;3.90;;;1.30;99.90;;;;;;4994607;28;20481;-63
2024/01/27 04:00:12;;;;;;;12.43;3.53;;;1.30;99.90;;;;;;5003624;28;20490;-64
2024/01/27 04:02:39;;;;;;;15.57;4.53;;;1.30;99.90;;;;;;4955997;28;20590;-65
2024/01/27 04:05:07;;;;;;;20.37;3.80;;;1.40;99.90;;;;;;4986012;28;20493;-63
2024/01/27 04:07:35;;;;;;;11.43;3.13;;;1.40;99.90;;;;;;4994542;28;20559;-64
2024/01/27 04:10:03;;;;;;;4.37;2.80;;;1.40;99.90;;;;;;4991185;28;20486;-64
2024/01/27 04:12:30;;;;;;;8.60;3.23;;;1.30;99.90;;;;;;4982816;28;20543;-64
2024/01/27 04:14:59;;;;;;;23.87;4.80;;;1.30;99.90;;;;;;5008411;28;20559;-64
2024/01/27 04:17:26;;;;;;;7.77;3.60;;;1.30;99.90;;;;;;4996422;28;20865;-63
2024/01/27 04:19:53;;;;;;;10.27;4.20;;;1.30;99.90;;;;;;4999346;28;20519;-64
2024/01/27 04:22:20;;;;;;;18.17;3.90;;;1.30;99.90;;;;;;4993266;28;20543;-63
2024/01/27 04:24:48;;;;;;;7.93;3.27;;;1.30;99.90;;;;;;4993970;28;20478;-64
2024/01/27 04:27:15;;;;;;;8.57;4.50;;;1.30;99.90;;;;;;4998181;28;20485;-63
2024/01/27 04:29:42;;;;;;;7.90;3.90;;;1.30;99.90;;;;;;4994496;28;20481;-64
2024/01/27 04:32:10;;;;;;;6.13;3.50;;;1.30;99.90;;;;;;4991304;28;20849;-67
2024/01/27 04:34:37;;;;;;;34.23;5.90;;;1.30;99.90;;;;;;4994171;28;20555;-69
2024/01/27 04:37:04;;;;;;;13.47;4.90;;;1.30;99.90;;;;;;4997656;28;20480;-68
2024/01/27 04:39:31;;;;;;;16.73;4.57;;;1.30;99.90;;;;;;4995790;28;20812;-68
2024/01/27 04:41:59;;;;;;;12.53;4.17;;;1.30;99.90;;;;;;4987597;28;20501;-68
2024/01/27 04:44:26;;;;;;;118.87;45.00;;;1.30;99.90;;;;;;4994320;28;20489;-67
2024/01/27 04:46:53;;;;;;;68.03;27.50;;;1.20;99.90;;;;;;4983787;28;20865;-68
2024/01/27 04:49:20;;;;;;;20.90;8.63;;;1.10;99.90;;;;;;4988886;28;20493;-68
2024/01/27 04:51:46;;;;;;;16.37;4.47;;;1.00;99.90;;;;;;4987698;28;20536;-68
2024/01/27 04:54:13;;;;;;;10.80;4.30;;;1.00;99.90;;;;;;4988631;28;20497;-68
2024/01/27 04:56:40;;;;;;;13.90;3.67;;;1.00;99.90;;;;;;5000060;28;20543;-69
2024/01/27 04:59:08;;;;;;;6.83;4.73;;;1.00;99.90;;;;;;4987791;28;20497;-68
2024/01/27 05:01:35;;;;;;;8.50;4.43;;;1.00;99.90;;;;;;4991696;28;20543;-68
2024/01/27 05:04:02;;;;;;;8.87;4.53;;;1.00;99.90;;;;;;4992687;28;20489;-69
2024/01/27 05:06:29;;;;;;;8.70;4.97;;;1.00;99.90;;;;;;4999046;28;20523;-68
2024/01/27 05:08:56;;;;;;;9.80;4.93;;;1.00;99.90;;;;;;4992174;28;20551;-69
2024/01/27 05:11:32;;;;;;;17.03;5.20;;;1.10;99.90;;;;;;4993648;28;20539;-64
2024/01/27 05:13:59;;;;;;;16.03;6.00;;;1.10;99.90;;;;;;4990019;28;20489;-64
2024/01/27 05:16:27;;;;;;;18.23;5.40;;;1.10;99.90;;;;;;4980367;28;20543;-64
2024/01/27 05:18:54;;;;;;;6.60;4.30;;;1.00;99.90;;;;;;4984537;28;20846;-62
2024/01/27 05:21:21;;;;;;;17.87;5.10;;;1.00;99.90;;;;;;4989460;28;20489;-63
2024/01/27 05:23:47;;;;;;;9.60;5.13;;;1.00;99.90;;;;;;4992772;28;20481;-63
2024/01/27 05:26:14;;;;;;;12.33;6.27;;;0.90;99.90;;;;;;4980908;28;20542;-63
2024/01/27 05:28:41;;;;;;;8.47;5.40;;;0.90;99.90;;;;;;4999185;28;20540;-63
2024/01/27 05:31:08;;;;;;;16.53;5.93;;;1.00;99.90;;;;;;5007567;28;20496;-64
2024/01/27 05:33:37;;;;;;;14.40;6.20;;;1.00;99.90;;;;;;4979470;28;20546;-63
2024/01/27 05:36:04;;;;;;;11.90;4.90;;;1.00;99.90;;;;;;4964089;28;20493;-64
2024/01/27 05:38:31;;;;;;;6.83;4.20;;;0.90;99.90;;;;;;4948242;28;20551;-64
2024/01/27 05:40:59;;;;;;;17.37;5.90;;;0.90;99.90;;;;;;4985012;28;20558;-63
2024/01/27 05:43:26;;;;;;;39.90;5.97;;;0.80;99.90;;;;;;4989605;28;20502;-63
2024/01/27 05:45:53;;;;;;;9.00;4.37;;;0.70;99.90;;;;;;4993399;28;20536;-63
2024/01/27 05:48:20;;;;;;;14.53;4.17;;;0.70;99.90;;;;;;4978269;28;20493;-63
2024/01/27 05:50:57;;;;;;;19.03;3.57;;;0.60;99.90;;;;;;4990027;28;20902;-64
2024/01/27 05:53:24;;;;;;;9.67;4.57;;;0.50;99.90;;;;;;4985926;28;20504;-64
2024/01/27 05:55:51;;;;;;;9.80;4.53;;;0.50;99.90;;;;;;4985462;28;20558;-64
2024/01/27 05:58:20;;;;;;;19.43;5.20;;;0.20;99.90;;;;;;4978808;28;20962;-62
2024/01/27 06:00:48;;;;;;;10.87;4.40;;;0.20;99.90;;;;;;4990950;28;20619;-63
2024/01/27 06:03:16;;;;;;;8.17;3.83;;;0.20;99.90;;;;;;4990743;28;20837;-63
2024/01/27 06:05:43;;;;;;;21.93;5.33;;;0.40;99.90;;;;;;4997872;28;20492;-63
2024/01/27 06:08:13;;;;;;;8.20;4.27;;;0.40;99.90;;;;;;4976591;28;20481;-64
2024/01/27 06:10:39;;;;;;;8.00;3.80;;;0.40;99.90;;;;;;4997328;28;20490;-64
2024/01/27 06:13:07;;;;;;;12.03;5.17;;;0.40;99.90;;;;;;4995511;28;20908;-64
2024/01/27 06:15:34;;;;;;;6.97;4.10;;;0.50;99.90;;;;;;4994486;28;21433;-63
2024/01/27 06:18:01;;;;;;;29.87;6.03;;;0.50;99.90;;;;;;4983345;28;20489;-64
2024/01/27 06:20:28;;;;;;;7.73;4.57;;;0.60;99.90;;;;;;4996586;28;20482;-64
2024/01/27 06:22:55;;;;;;;8.73;3.97;;;0.60;99.90;;;;;;4983091;28;20534;-64
2024/01/27 06:25:24;;;;;;;11.17;5.13;;;0.70;99.90;;;;;;4993599;28;20497;-63
2024/01/27 06:27:51;;;;;;;17.07;6.63;;;;;;;;;;4976723;28;21036;-63
2024/01/27 06:30:18;;;;;;;14.50;4.93;;;0.80;99.90;;;;;;4994016;28;21033;-63
2024/01/27 06:32:45;;;;;;;16.13;5.50;;;0.80;99.90;;;;;;4980657;28;20497;-64
2024/01/27 06:35:12;;;;;;;13.23;4.50;;;0.80;99.90;;;;;;4984908;28;20519;-64
2024/01/27 06:37:38;;;;;;;8.13;5.63;;;0.80;99.90;;;;;;4998628;28;20477;-64
2024/01/27 06:40:07;;;;;;;16.63;6.27;;;0.80;99.90;;;;;;4971357;28;21231;-64
2024/01/27 06:42:35;;;;;;;10.70;4.60;;;0.70;99.90;;;;;;4991145;28;20569;-64
2024/01/27 06:45:02;;;;;;;13.13;6.77;;;0.70;99.90;;;;;;4998828;28;20543;-63
2024/01/27 06:47:29;;;;;;;20.03;6.17;;;0.70;99.90;;;;;;4989052;28;20493;-64
2024/01/27 06:49:56;;;;;;;11.77;5.97;;;0.70;99.90;;;;;;4989641;28;20562;-63
2024/01/27 06:52:23;;;;;;;38.10;10.80;;;;;;;;;;4976881;28;20575;-64
2024/01/27 06:54:50;;;;;;;14.50;8.07;;;0.70;99.90;;;;;;4964097;28;20566;-63
2024/01/27 06:57:21;;;;;;;17.43;10.30;;;0.70;99.90;;;;;;4983030;28;20528;-64
2024/01/27 06:59:52;;;;;;;18.07;8.20;;;0.70;99.90;;;;;;4963095;28;20486;-64
2024/01/27 07:02:20;;;;;;;20.83;7.77;;;0.70;99.90;;;;;;4995779;28;20799;-64
2024/01/27 07:04:47;;;;;;;15.13;7.40;;;0.70;99.90;;;;;;4981613;28;20877;-64
2024/01/27 07:07:13;;;;;;;17.53;8.00;;;0.70;99.90;;;;;;4966015;28;20506;-64
2024/01/27 07:09:40;;;;;;;19.83;8.40;;;0.70;99.90;;;;;;4963722;28;20485;-64
2024/01/27 07:12:09;;;;;;;10.43;7.67;;;0.70;99.90;;;;;;4980666;28;20563;-64
2024/01/27 07:14:36;;;;;;;15.53;7.53;;;0.70;99.90;;;;;;4989579;28;20731;-64
2024/01/27 07:17:05;;;;;;;59.57;20.53;;;0.70;99.90;;;;;;4970326;28;20564;-64
2024/01/27 07:19:32;;;;;;;35.00;15.33;;;0.70;99.90;;;;;;4983149;28;20474;-63
2024/01/27 07:21:59;;;;;;;28.77;11.30;;;0.70;99.90;;;;;;4973811;28;20472;-63
2024/01/27 07:24:26;;;;;;;73.07;30.00;;;0.70;99.90;;;;;;4997344;28;20832;-63
2024/01/27 07:26:53;;;;;;;37.63;15.60;;;0.70;99.90;;;;;;4984671;28;20492;-64
2024/01/27 07:29:21;;;;;;;32.63;15.37;;;0.80;99.90;;;;;;4990444;28;20492;-64
2024/01/27 07:31:48;;;;;;;21.20;10.57;;;0.50;98.90;;;;;;4989544;28;20486;-64
2024/01/27 07:34:17;;;;;;;30.87;10.17;;;0.40;99.80;;;;;;4974335;28;20560;-63
2024/01/27 07:36:45;;;;;;;29.80;13.00;;;0.40;99.90;;;;;;4967447;28;20485;-64
2024/01/27 07:39:13;;;;;;;31.50;15.00;;;0.40;99.90;;;;;;4991559;28;20485;-63
2024/01/27 07:41:40;;;;;;;28.30;12.23;;;0.50;99.90;;;;;;4993846;28;20488;-64
2024/01/27 07:44:11;;;;;;;22.07;10.80;;;0.60;99.90;;;;;;4983644;28;20488;-64
2024/01/27 07:46:38;;;;;;;22.23;8.33;;;0.50;99.90;;;;;;4970365;28;20500;-64
2024/01/27 07:49:06;;;;;;;13.33;7.30;;;0.50;99.90;;;;;;4998378;28;20515;-63
2024/01/27 07:51:35;;;;;;;22.77;9.80;;;0.50;99.90;;;;;;4994003;28;20486;-63
2024/01/27 07:54:02;;;;;;;16.80;8.57;;;0.60;99.90;;;;;;4951846;28;20498;-64
2024/01/27 07:56:29;;;;;;;24.67;9.53;;;0.60;99.90;;;;;;4965743;28;21067;-64
2024/01/27 07:58:56;;;;;;;19.67;8.47;;;0.60;99.90;;;;;;4976532;28;20569;-64
2024/01/27 08:01:23;;;;;;;30.20;11.93;;;0.60;99.90;;;;;;4992750;28;20899;-64
2024/01/27 08:03:50;;;;;;;20.20;9.80;;;0.60;99.90;;;;;;4988863;28;20538;-67
2024/01/27 08:06:18;;;;;;;29.50;11.60;;;0.60;99.90;;;;;;4980493;28;20481;-67
2024/01/27 08:08:48;;;;;;;36.47;16.30;;;0.50;99.90;;;;;;4995353;28;20946;-67
2024/01/27 08:11:15;;;;;;;45.73;13.43;;;1.10;99.90;;;;;;4965769;28;21133;-66
2024/01/27 08:13:42;;;;;;;33.03;16.93;;;1.70;99.90;;;;;;4982561;28;20504;-67
2024/01/27 08:16:12;;;;;;;23.57;14.67;;;3.30;99.90;;;;;;4988958;28;20485;-68
2024/01/27 08:18:39;;;;;;;33.17;18.37;;;4.60;99.90;;;;;;4990491;28;20511;-67
2024/01/27 08:21:06;;;;;;;23.73;12.07;;;5.60;99.90;;;;;;4987222;28;20535;-67
2024/01/27 08:23:33;;;;;;;13.53;10.83;;;7.50;98.20;;;;;;5004992;28;20860;-69
2024/01/27 08:26:02;;;;;;;12.80;7.20;;;8.30;97.10;;;;;;4981427;28;20479;-67
2024/01/27 08:28:28;;;;;;;6.83;6.23;;;;;;;;;;4962653;28;20660;-68
2024/01/27 08:30:55;;;;;;;23.30;12.00;;;10.90;93.10;;;;;;4992364;28;20562;-67
2024/01/27 08:33:22;;;;;;;11.67;8.70;;;11.80;91.30;;;;;;4977636;28;20772;-67
2024/01/27 08:35:49;;;;;;;27.43;10.57;;;12.30;90.10;;;;;;4997514;28;20476;-67
2024/01/27 08:38:16;;;;;;;12.50;10.67;;;12.80;90.40;;;;;;4992172;28;20548;-67
2024/01/27 08:40:43;;;;;;;15.10;9.73;;;13.60;89.00;;;;;;4984274;28;21174;-67
2024/01/27 08:43:12;;;;;;;13.67;8.40;;;14.20;86.10;;;;;;4986313;28;20482;-65
2024/01/27 08:45:39;;;;;;;10.50;6.73;;;14.50;84.30;;;;;;4973412;28;20501;-65
2024/01/27 08:48:09;;;;;;;12.40;7.40;;;14.80;84.00;;;;;;4992507;28;20876;-66
2024/01/27 08:50:36;;;;;;;11.50;7.03;;;;;;;;;;4977836;28;20503;-66
2024/01/27 08:53:03;;;;;;;40.53;8.10;;;16.00;83.80;;;;;;4984868;28;20495;-66
2024/01/27 08:55:30;;;;;;;12.77;9.33;;;15.90;79.30;;;;;;4965957;28;20472;-66
2024/01/27 08:57:58;;;;;;;11.97;7.90;;;15.40;78.60;;;;;;4952011;28;20554;-66
2024/01/27 09:00:26;;;;;;;12.20;8.17;;;15.80;80.60;;;;;;4977310;28;20960;-67
2024/01/27 09:02:54;;;;;;;8.50;7.57;;;;;;;;;;4976686;28;20964;-66
2024/01/27 09:05:21;;;;;;;10.70;7.87;;;16.20;80.20;;;;;;4973486;28;20540;-66
2024/01/27 09:07:47;;;;;;;13.63;9.23;;;16.20;79.30;;;;;;4980543;28;20879;-66
2024/01/27 09:10:15;;;;;;;21.20;8.93;;;16.10;77.80;;;;;;4978012;28;20559;-66
2024/01/27 09:12:42;;;;;;;14.00;9.43;;;16.00;77.30;;;;;;4963996;28;20566;-66
2024/01/27 09:15:09;;;;;;;10.40;9.10;;;15.50;77.00;;;;;;4978741;28;20485;-66
2024/01/27 09:17:39;;;;;;;16.97;7.50;;;15.00;79.50;;;;;;4980090;28;20486;-66
2024/01/27 09:20:07;;;;;;;16.90;6.70;;;14.60;80.10;;;;;;4978358;28;20474;-66
2024/01/27 09:22:34;;;;;;;9.93;6.20;;;14.50;81.00;;;;;;4967410;28;21019;-66
2024/01/27 09:25:01;;;;;;;7.83;6.30;;;14.00;82.20;;;;;;4978642;28;20481;-66
2024/01/27 09:27:28;;;;;;;10.73;7.23;;;13.50;82.40;;;;;;4983116;28;20493;-66
2024/01/27 09:29:55;;;;;;;18.30;8.10;;;13.20;83.00;;;;;;4975180;28;20482;-66
2024/01/27 09:32:22;;;;;;;13.27;8.87;;;12.60;84.50;;;;;;4977432;28;20485;-66
2024/01/27 09:34:53;;;;;;;19.70;10.07;;;12.20;86.30;;;;;;4983542;28;21024;-65
2024/01/27 09:37:20;;;;;;;13.60;7.87;;;11.80;87.20;;;;;;4977348;28;20593;-65
2024/01/27 09:39:47;;;;;;;14.20;7.77;;;11.50;88.30;;;;;;4981328;28;20492;-65
2024/01/27 09:42:15;;;;;;;13.20;7.10;;;11.30;88.60;;;;;;4968460;28;20536;-65
2024/01/27 09:44:45;;;;;;;13.80;6.30;;;11.00;89.10;;;;;;4984871;28;20492;-65
2024/01/27 09:47:12;;;;;;;9.83;5.73;;;10.90;89.80;;;;;;4989473;28;20481;-66
2024/01/27 09:49:41;;;;;;;8.60;5.97;;;10.60;90.60;;;;;;4977681;28;20484;-66
2024/01/27 09:52:11;;;;;;;20.40;6.37;;;10.40;90.70;;;;;;4999797;28;20528;-66
2024/01/27 09:54:38;;;;;;;17.00;7.10;;;10.40;91.20;;;;;;4993440;28;20486;-65
2024/01/27 09:57:05;;;;;;;11.93;7.77;;;10.30;91.60;;;;;;4984223;28;20481;-66
2024/01/27 09:59:34;;;;;;;17.63;8.47;;;10.20;91.90;;;;;;5000374;28;20478;-66
2024/01/27 10:02:03;;;;;;;8.40;7.50;;;10.10;92.10;;;;;;4964143;28;20563;-66
2024/01/27 10:04:30;;;;;;;6.03;5.10;;;10.10;92.10;;;;;;4988921;28;20580;-66
2024/01/27 10:06:59;;;;;;;13.33;6.33;;;10.10;92.30;;;;;;4977173;28;20485;-66
2024/01/27 10:09:28;;;;;;;17.27;7.67;;;10.10;92.80;;;;;;4973199;28;20809;-66
2024/01/27 10:11:57;;;;;;;28.03;7.40;;;10.10;93.00;;;;;;4987586;28;20485;-65
2024/01/27 10:14:24;;;;;;;11.03;7.43;;;10.10;93.00;;;;;;4995554;28;20488;-66
2024/01/27 10:16:51;;;;;;;17.27;6.47;;;10.10;93.50;;;;;;4992732;28;20531;-66
2024/01/27 10:19:19;;;;;;;16.10;6.00;;;10.20;93.30;;;;;;4961335;28;20473;-67
2024/01/27 10:21:46;;;;;;;14.70;6.93;;;10.20;93.40;;;;;;4993872;28;20847;-66
2024/01/27 10:24:13;;;;;;;11.73;5.90;;;10.20;93.60;;;;;;4975205;28;20485;-68
2024/01/27 10:26:41;;;;;;;19.87;6.60;;;10.40;93.90;;;;;;4987426;28;20489;-68
2024/01/27 10:29:09;;;;;;;13.07;5.63;;;10.40;93.90;;;;;;4948490;28;20489;-68
2024/01/27 10:31:36;;;;;;;14.93;5.80;;;10.40;93.80;;;;;;4992400;28;20544;-68
2024/01/27 10:34:04;;;;;;;16.10;6.80;;;10.40;94.00;;;;;;4966496;28;20517;-69
2024/01/27 10:36:40;;;;;;;14.57;6.93;;;10.40;94.10;;;;;;4973945;28;20481;-69
2024/01/27 10:39:15;;;;;;;7.97;6.10;;;;;;;;;;4985882;28;20827;-68
2024/01/27 10:41:46;;;;;;;20.43;7.40;;;10.60;94.30;;;;;;4977015;28;21014;-68
2024/01/27 10:44:15;;;;;;;36.03;7.80;;;10.70;94.40;;;;;;4978708;28;20559;-68
2024/01/27 10:46:45;;;;;;;23.60;6.80;;;10.70;94.40;;;;;;4990777;28;20552;-68
2024/01/27 10:49:13;;;;;;;10.30;6.60;;;10.70;94.40;;;;;;4956301;28;20488;-68
2024/01/27 10:51:44;;;;;;;8.30;6.10;;;10.80;94.50;;;;;;4993616;28;20488;-68
2024/01/27 10:54:16;;;;;;;23.63;6.30;;;10.90;94.70;;;;;;4983656;28;20882;-68
2024/01/27 10:56:46;;;;;;;10.37;6.00;;;11.10;95.00;;;;;;5002910;28;20923;-69
2024/01/27 10:59:15;;;;;;;12.50;5.77;;;11.20;94.90;;;;;;4985193;28;20489;-68
2024/01/27 11:01:43;;;;;;;23.53;6.53;;;11.40;94.60;;;;;;4980019;28;20481;-68
2024/01/27 11:04:14;;;;;;;13.27;6.53;;;11.40;94.90;;;;;;4980069;28;20482;-68
2024/01/27 11:06:43;;;;;;;13.70;6.50;;;11.50;94.40;;;;;;4984617;28;20485;-68
2024/01/27 11:09:12;;;;;;;18.60;7.97;;;11.60;94.50;;;;;;4986024;28;20591;-68
2024/01/27 11:11:41;;;;;;;9.53;5.57;;;11.70;94.30;;;;;;4991964;28;20508;-69
2024/01/27 11:14:10;;;;;;;25.37;6.60;;;11.80;94.40;;;;;;4982872;28;20494;-68
2024/01/27 11:16:44;;;;;;;12.60;5.70;;;11.90;94.30;;;;;;4995768;28;20513;-68
2024/01/27 11:19:12;;;;;;;10.10;5.70;;;11.90;93.70;;;;;;4991825;28;20532;-68
2024/01/27 11:21:39;;;;;;;8.60;5.20;;;12.00;93.80;;;;;;4977335;28;20477;-68
2024/01/27 11:24:14;;;;;;;23.60;6.87;;;12.00;93.90;;;;;;4987864;28;20540;-68
2024/01/27 11:26:42;;;;;;;12.37;6.57;;;12.00;93.80;;;;;;4981456;28;20480;-68
2024/01/27 11:29:19;;;;;;;14.00;5.63;;;12.10;94.20;;;;;;4998058;28;20876;-69
2024/01/27 11:31:46;;;;;;;5.40;4.50;;;12.10;93.90;;;;;;4963714;28;20944;-67
2024/01/27 11:34:16;;;;;;;10.17;6.63;;;12.20;93.70;;;;;;4962365;28;20500;-68
2024/01/27 11:36:45;;;;;;;14.73;4.93;;;12.40;93.70;;;;;;4991784;28;20846;-68
2024/01/27 11:39:27;;;;;;;13.93;6.20;;;12.50;93.30;;;;;;4974058;28;20550;-68
2024/01/27 11:41:54;;;;;;;12.03;5.37;;;12.60;93.30;;;;;;4968544;28;20731;-69
2024/01/27 11:44:23;;;;;;;18.20;7.13;;;12.60;93.40;;;;;;4977972;28;20540;-67
2024/01/27 11:46:49;;;;;;;10.60;5.40;;;12.70;93.80;;;;;;5000207;28;20481;-68
2024/01/27 11:49:17;;;;;;;15.00;4.77;;;13.00;93.70;;;;;;4991257;28;20488;-67
2024/01/27 11:51:44;;;;;;;18.33;5.80;;;13.00;93.30;;;;;;4992701;28;20486;-67
2024/01/27 11:54:11;;;;;;;23.00;8.47;;;13.00;92.00;;;;;;4989763;28;20550;-67
2024/01/27 11:56:38;;;;;;;12.17;7.80;;;12.90;91.70;;;;;;4986826;28;20578;-67
2024/01/27 11:59:05;;;;;;;13.43;8.73;;;12.70;91.60;;;;;;4988806;28;20500;-69
2024/01/27 12:01:33;;;;;;;11.37;8.43;;;12.60;91.90;;;;;;4995588;28;20798;-68
2024/01/27 12:04:00;;;;;;;12.07;7.10;;;12.50;93.10;;;;;;4985847;28;20923;-68
2024/01/27 12:06:28;;;;;;;12.70;6.67;;;12.50;92.60;;;;;;4995603;28;20957;-68
2024/01/27 12:08:57;;;;;;;55.30;9.70;;;12.60;92.90;;;;;;4976041;28;21024;-67
2024/01/27 12:11:25;;;;;;;13.60;7.70;;;12.60;92.90;;;;;;5008531;28;20477;-67
2024/01/27 12:13:52;;;;;;;22.67;8.60;;;12.80;92.80;;;;;;4994692;28;20785;-63
2024/01/27 12:16:19;;;;;;;22.23;8.30;;;12.90;93.30;;;;;;4991311;28;20496;-65
2024/01/27 12:18:47;;;;;;;9.67;6.40;;;13.00;93.60;;;;;;4989705;28;20485;-64
2024/01/27 12:21:19;;;;;;;18.67;7.37;;;13.20;92.60;;;;;;4975547;28;20542;-65
2024/01/27 12:23:53;;;;;;;16.20;6.27;;;13.30;92.50;;;;;;4985439;28;20490;-64
2024/01/27 12:26:22;;;;;;;10.80;5.63;;;13.40;92.60;;;;;;4977369;28;20497;-64
2024/01/27 12:28:49;;;;;;;9.57;5.80;;;13.50;92.70;;;;;;4983858;28;20488;-64
2024/01/27 12:31:17;;;;;;;7.57;4.93;;;13.60;91.80;;;;;;5000958;28;20481;-64
2024/01/27 12:33:51;;;;;;;7.60;4.43;;;13.70;91.70;;;;;;4980752;28;20497;-64
2024/01/27 12:36:20;;;;;;;9.10;4.67;;;14.00;91.70;;;;;;4977926;28;20983;-64
2024/01/27 12:38:55;;;;;;;15.33;4.10;;;14.20;91.70;;;;;;4977111;28;20493;-64
2024/01/27 12:41:22;;;;;;;12.80;3.70;;;14.40;90.60;;;;;;4995841;28;20473;-64
2024/01/27 12:43:49;;;;;;;7.27;3.40;;;;;;;;;;4971728;28;20481;-64
2024/01/27 12:46:16;;;;;;;12.00;4.00;;;14.50;90.60;;;;;;4961833;28;20490;-64
2024/01/27 12:48:44;;;;;;;8.70;3.87;;;14.50;89.60;;;;;;5001376;28;21055;-64
2024/01/27 12:51:13;;;;;;;10.10;3.17;;;14.40;90.20;;;;;;4987864;28;20486;-64